sensor_id;sensor_type;location;lat;lon;timestamp;P1;durP1;ratioP1;P2;durP2;ratioP2
37823;SDS011;23667;43.246;26.576;2022-08-07T00:01:20;9.32;;;7.60;;
37823;SDS011;23667;43.246;26.576;2022-08-07T00:03:46;9.90;;;6.93;;
37823;SDS011;23667;43.246;26.576;2022-08-07T00:06:12;10.77;;;7.43;;
37823;SDS011;23667;43.246;26.576;2022-08-07T00:08:37;8.40;;;6.88;;
37823;SDS011;23667;43.246;26.576;2022-08-07T00:11:03;9.38;;;7.07;;
37823;SDS011;23667;43.246;26.576;2022-08-07T00:13:29;10.68;;;8.02;;
37823;SDS011;23667;43.246;26.576;2022-08-07T00:15:55;10.60;;;7.20;;
37823;SDS011;23667;43.246;26.576;2022-08-07T00:18:23;10.70;;;8.40;;
37823;SDS011;23667;43.246;26.576;2022-08-07T00:21:02;12.25;;;7.78;;
37823;SDS011;23667;43.246;26.576;2022-08-07T00:23:30;12.00;;;8.20;;
37823;SDS011;23667;43.246;26.576;2022-08-07T00:25:57;10.85;;;9.05;;
37823;SDS011;23667;43.246;26.576;2022-08-07T00:28:23;10.20;;;8.38;;
37823;SDS011;23667;43.246;26.576;2022-08-07T00:30:49;10.15;;;8.23;;
37823;SDS011;23667;43.246;26.576;2022-08-07T00:33:14;10.82;;;8.05;;
37823;SDS011;23667;43.246;26.576;2022-08-07T00:35:40;10.30;;;7.68;;
37823;SDS011;23667;43.246;26.576;2022-08-07T00:38:05;9.68;;;7.30;;
37823;SDS011;23667;43.246;26.576;2022-08-07T00:40:31;19.48;;;8.10;;
37823;SDS011;23667;43.246;26.576;2022-08-07T00:42:57;10.10;;;8.40;;
37823;SDS011;23667;43.246;26.576;2022-08-07T00:45:22;11.18;;;7.75;;
37823;SDS011;23667;43.246;26.576;2022-08-07T00:47:48;10.48;;;7.82;;
37823;SDS011;23667;43.246;26.576;2022-08-07T00:50:15;10.23;;;7.75;;
37823;SDS011;23667;43.246;26.576;2022-08-07T00:52:41;13.18;;;8.57;;
37823;SDS011;23667;43.246;26.576;2022-08-07T00:55:08;10.43;;;8.80;;
37823;SDS011;23667;43.246;26.576;2022-08-07T00:57:34;12.35;;;9.02;;
37823;SDS011;23667;43.246;26.576;2022-08-07T01:00:00;14.40;;;8.77;;
37823;SDS011;23667;43.246;26.576;2022-08-07T01:02:29;12.32;;;8.60;;
37823;SDS011;23667;43.246;26.576;2022-08-07T01:04:55;9.70;;;7.72;;
37823;SDS011;23667;43.246;26.576;2022-08-07T01:07:22;9.73;;;7.35;;
37823;SDS011;23667;43.246;26.576;2022-08-07T01:09:47;11.95;;;7.97;;
37823;SDS011;23667;43.246;26.576;2022-08-07T01:12:13;8.13;;;7.32;;
37823;SDS011;23667;43.246;26.576;2022-08-07T01:14:40;11.55;;;8.75;;
37823;SDS011;23667;43.246;26.576;2022-08-07T01:17:06;12.52;;;8.55;;
37823;SDS011;23667;43.246;26.576;2022-08-07T01:19:33;9.88;;;7.38;;
37823;SDS011;23667;43.246;26.576;2022-08-07T01:21:59;10.75;;;8.40;;
37823;SDS011;23667;43.246;26.576;2022-08-07T01:24:25;9.60;;;8.70;;
37823;SDS011;23667;43.246;26.576;2022-08-07T01:26:52;9.32;;;7.75;;
37823;SDS011;23667;43.246;26.576;2022-08-07T01:29:19;9.88;;;8.00;;
37823;SDS011;23667;43.246;26.576;2022-08-07T01:31:46;10.15;;;8.77;;
37823;SDS011;23667;43.246;26.576;2022-08-07T01:34:12;16.15;;;8.45;;
37823;SDS011;23667;43.246;26.576;2022-08-07T01:36:38;14.13;;;8.68;;
37823;SDS011;23667;43.246;26.576;2022-08-07T01:39:04;9.90;;;8.18;;
37823;SDS011;23667;43.246;26.576;2022-08-07T01:41:30;10.95;;;7.90;;
37823;SDS011;23667;43.246;26.576;2022-08-07T01:43:56;14.25;;;8.38;;
37823;SDS011;23667;43.246;26.576;2022-08-07T01:46:22;11.60;;;8.13;;
37823;SDS011;23667;43.246;26.576;2022-08-07T01:48:47;9.32;;;7.70;;
37823;SDS011;23667;43.246;26.576;2022-08-07T01:51:16;10.70;;;8.48;;
37823;SDS011;23667;43.246;26.576;2022-08-07T01:53:43;24.20;;;9.05;;
37823;SDS011;23667;43.246;26.576;2022-08-07T01:56:22;9.25;;;8.30;;
37823;SDS011;23667;43.246;26.576;2022-08-07T01:59:10;9.52;;;8.35;;
37823;SDS011;23667;43.246;26.576;2022-08-07T02:01:42;12.68;;;8.88;;
37823;SDS011;23667;43.246;26.576;2022-08-07T02:04:14;10.85;;;8.32;;
37823;SDS011;23667;43.246;26.576;2022-08-07T02:06:42;15.52;;;8.50;;
37823;SDS011;23667;43.246;26.576;2022-08-07T02:09:10;10.23;;;9.18;;
37823;SDS011;23667;43.246;26.576;2022-08-07T02:11:39;8.70;;;7.95;;
37823;SDS011;23667;43.246;26.576;2022-08-07T02:14:08;11.07;;;8.43;;
37823;SDS011;23667;43.246;26.576;2022-08-07T02:16:36;15.63;;;8.60;;
37823;SDS011;23667;43.246;26.576;2022-08-07T02:19:03;12.63;;;9.48;;
37823;SDS011;23667;43.246;26.576;2022-08-07T02:21:32;10.05;;;8.40;;
37823;SDS011;23667;43.246;26.576;2022-08-07T02:23:59;12.25;;;8.50;;
37823;SDS011;23667;43.246;26.576;2022-08-07T02:26:26;12.77;;;9.75;;
37823;SDS011;23667;43.246;26.576;2022-08-07T02:28:53;15.52;;;9.73;;
37823;SDS011;23667;43.246;26.576;2022-08-07T02:31:21;12.52;;;8.57;;
37823;SDS011;23667;43.246;26.576;2022-08-07T02:33:48;15.07;;;9.00;;
37823;SDS011;23667;43.246;26.576;2022-08-07T02:36:15;10.82;;;9.10;;
37823;SDS011;23667;43.246;26.576;2022-08-07T02:38:42;11.93;;;9.27;;
37823;SDS011;23667;43.246;26.576;2022-08-07T02:41:09;13.32;;;9.52;;
37823;SDS011;23667;43.246;26.576;2022-08-07T02:43:37;10.48;;;9.15;;
37823;SDS011;23667;43.246;26.576;2022-08-07T02:46:05;10.25;;;9.25;;
37823;SDS011;23667;43.246;26.576;2022-08-07T02:48:32;12.90;;;9.57;;
37823;SDS011;23667;43.246;26.576;2022-08-07T02:51:00;10.82;;;9.30;;
37823;SDS011;23667;43.246;26.576;2022-08-07T02:53:31;14.82;;;9.40;;
37823;SDS011;23667;43.246;26.576;2022-08-07T02:55:58;12.68;;;9.02;;
37823;SDS011;23667;43.246;26.576;2022-08-07T02:58:28;11.00;;;9.85;;
37823;SDS011;23667;43.246;26.576;2022-08-07T03:00:55;15.85;;;9.68;;
37823;SDS011;23667;43.246;26.576;2022-08-07T03:03:25;13.57;;;9.50;;
37823;SDS011;23667;43.246;26.576;2022-08-07T03:05:52;16.90;;;9.32;;
37823;SDS011;23667;43.246;26.576;2022-08-07T03:08:19;12.82;;;9.50;;
37823;SDS011;23667;43.246;26.576;2022-08-07T03:10:46;11.48;;;10.27;;
37823;SDS011;23667;43.246;26.576;2022-08-07T03:13:15;16.80;;;10.13;;
37823;SDS011;23667;43.246;26.576;2022-08-07T03:15:41;11.60;;;9.52;;
37823;SDS011;23667;43.246;26.576;2022-08-07T03:18:07;13.75;;;10.02;;
37823;SDS011;23667;43.246;26.576;2022-08-07T03:20:33;10.50;;;8.82;;
37823;SDS011;23667;43.246;26.576;2022-08-07T03:23:00;12.45;;;9.07;;
37823;SDS011;23667;43.246;26.576;2022-08-07T03:25:26;10.70;;;9.60;;
37823;SDS011;23667;43.246;26.576;2022-08-07T03:27:56;14.77;;;9.57;;
37823;SDS011;23667;43.246;26.576;2022-08-07T03:30:23;10.25;;;9.23;;
37823;SDS011;23667;43.246;26.576;2022-08-07T03:32:50;11.57;;;9.68;;
37823;SDS011;23667;43.246;26.576;2022-08-07T03:35:18;9.60;;;8.60;;
37823;SDS011;23667;43.246;26.576;2022-08-07T03:38:09;13.23;;;9.63;;
37823;SDS011;23667;43.246;26.576;2022-08-07T03:40:35;11.05;;;9.55;;
37823;SDS011;23667;43.246;26.576;2022-08-07T03:43:02;17.23;;;9.23;;
37823;SDS011;23667;43.246;26.576;2022-08-07T03:45:28;18.55;;;9.50;;
37823;SDS011;23667;43.246;26.576;2022-08-07T03:47:55;10.65;;;9.15;;
37823;SDS011;23667;43.246;26.576;2022-08-07T03:50:21;13.88;;;9.63;;
37823;SDS011;23667;43.246;26.576;2022-08-07T03:52:49;16.48;;;10.25;;
37823;SDS011;23667;43.246;26.576;2022-08-07T03:55:16;15.95;;;9.70;;
37823;SDS011;23667;43.246;26.576;2022-08-07T03:57:42;13.50;;;9.48;;
37823;SDS011;23667;43.246;26.576;2022-08-07T04:00:10;12.52;;;9.10;;
37823;SDS011;23667;43.246;26.576;2022-08-07T04:02:36;24.05;;;10.55;;
37823;SDS011;23667;43.246;26.576;2022-08-07T04:05:01;16.15;;;10.50;;
37823;SDS011;23667;43.246;26.576;2022-08-07T04:07:30;11.85;;;8.93;;
37823;SDS011;23667;43.246;26.576;2022-08-07T04:09:55;13.00;;;9.52;;
37823;SDS011;23667;43.246;26.576;2022-08-07T04:12:21;12.77;;;9.07;;
37823;SDS011;23667;43.246;26.576;2022-08-07T04:14:48;20.00;;;10.35;;
37823;SDS011;23667;43.246;26.576;2022-08-07T04:17:14;14.23;;;10.20;;
37823;SDS011;23667;43.246;26.576;2022-08-07T04:19:40;15.93;;;9.95;;
37823;SDS011;23667;43.246;26.576;2022-08-07T04:22:06;18.05;;;10.27;;
37823;SDS011;23667;43.246;26.576;2022-08-07T04:24:32;12.57;;;9.55;;
37823;SDS011;23667;43.246;26.576;2022-08-07T04:26:59;16.42;;;9.80;;
37823;SDS011;23667;43.246;26.576;2022-08-07T04:29:27;12.57;;;9.55;;
37823;SDS011;23667;43.246;26.576;2022-08-07T04:31:53;24.23;;;10.25;;
37823;SDS011;23667;43.246;26.576;2022-08-07T04:34:20;16.50;;;10.32;;
37823;SDS011;23667;43.246;26.576;2022-08-07T04:36:46;13.48;;;10.35;;
37823;SDS011;23667;43.246;26.576;2022-08-07T04:39:12;14.15;;;10.00;;
37823;SDS011;23667;43.246;26.576;2022-08-07T04:41:38;13.90;;;10.70;;
37823;SDS011;23667;43.246;26.576;2022-08-07T04:44:03;20.08;;;11.50;;
37823;SDS011;23667;43.246;26.576;2022-08-07T04:46:39;16.05;;;11.10;;
37823;SDS011;23667;43.246;26.576;2022-08-07T04:49:17;18.02;;;10.85;;
37823;SDS011;23667;43.246;26.576;2022-08-07T04:54:23;20.42;;;10.95;;
37823;SDS011;23667;43.246;26.576;2022-08-07T04:57:16;14.82;;;11.13;;
37823;SDS011;23667;43.246;26.576;2022-08-07T04:59:58;16.45;;;10.20;;
37823;SDS011;23667;43.246;26.576;2022-08-07T05:10:30;13.50;;;9.73;;
37823;SDS011;23667;43.246;26.576;2022-08-07T05:15:38;11.20;;;9.20;;
37823;SDS011;23667;43.246;26.576;2022-08-07T05:18:18;11.90;;;9.32;;
37823;SDS011;23667;43.246;26.576;2022-08-07T05:20:47;11.52;;;9.10;;
37823;SDS011;23667;43.246;26.576;2022-08-07T05:23:17;10.25;;;8.68;;
37823;SDS011;23667;43.246;26.576;2022-08-07T05:25:45;15.40;;;8.88;;
37823;SDS011;23667;43.246;26.576;2022-08-07T05:28:11;10.68;;;7.53;;
37823;SDS011;23667;43.246;26.576;2022-08-07T05:30:38;8.30;;;7.30;;
37823;SDS011;23667;43.246;26.576;2022-08-07T05:33:05;9.20;;;6.72;;
37823;SDS011;23667;43.246;26.576;2022-08-07T05:35:33;11.77;;;6.60;;
37823;SDS011;23667;43.246;26.576;2022-08-07T05:38:00;8.38;;;7.13;;
37823;SDS011;23667;43.246;26.576;2022-08-07T05:40:28;9.50;;;6.72;;
37823;SDS011;23667;43.246;26.576;2022-08-07T05:42:54;7.60;;;5.95;;
37823;SDS011;23667;43.246;26.576;2022-08-07T05:45:20;9.70;;;6.40;;
37823;SDS011;23667;43.246;26.576;2022-08-07T05:47:47;8.23;;;6.65;;
37823;SDS011;23667;43.246;26.576;2022-08-07T05:50:13;8.40;;;6.20;;
37823;SDS011;23667;43.246;26.576;2022-08-07T05:52:40;7.82;;;6.15;;
37823;SDS011;23667;43.246;26.576;2022-08-07T05:55:06;6.45;;;5.82;;
37823;SDS011;23667;43.246;26.576;2022-08-07T05:57:32;8.70;;;5.93;;
37823;SDS011;23667;43.246;26.576;2022-08-07T06:00:00;13.52;;;5.75;;
37823;SDS011;23667;43.246;26.576;2022-08-07T06:02:28;29.70;;;6.07;;
37823;SDS011;23667;43.246;26.576;2022-08-07T06:05:09;8.98;;;5.88;;
37823;SDS011;23667;43.246;26.576;2022-08-07T06:07:37;11.15;;;5.90;;
37823;SDS011;23667;43.246;26.576;2022-08-07T06:10:04;7.63;;;5.20;;
37823;SDS011;23667;43.246;26.576;2022-08-07T06:12:30;8.32;;;5.10;;
37823;SDS011;23667;43.246;26.576;2022-08-07T06:14:59;8.73;;;4.30;;
37823;SDS011;23667;43.246;26.576;2022-08-07T06:17:25;12.77;;;4.68;;
37823;SDS011;23667;43.246;26.576;2022-08-07T06:19:51;8.88;;;5.03;;
37823;SDS011;23667;43.246;26.576;2022-08-07T06:22:18;6.47;;;4.53;;
37823;SDS011;23667;43.246;26.576;2022-08-07T06:24:44;9.05;;;4.75;;
37823;SDS011;23667;43.246;26.576;2022-08-07T06:27:18;10.98;;;4.80;;
37823;SDS011;23667;43.246;26.576;2022-08-07T06:29:45;4.30;;;3.60;;
37823;SDS011;23667;43.246;26.576;2022-08-07T06:32:11;7.20;;;4.70;;
37823;SDS011;23667;43.246;26.576;2022-08-07T06:34:36;5.93;;;4.22;;
37823;SDS011;23667;43.246;26.576;2022-08-07T06:37:01;5.90;;;3.92;;
37823;SDS011;23667;43.246;26.576;2022-08-07T06:39:27;8.43;;;5.82;;
37823;SDS011;23667;43.246;26.576;2022-08-07T06:41:55;6.75;;;4.18;;
37823;SDS011;23667;43.246;26.576;2022-08-07T06:44:24;6.60;;;4.63;;
37823;SDS011;23667;43.246;26.576;2022-08-07T06:46:52;11.35;;;4.88;;
37823;SDS011;23667;43.246;26.576;2022-08-07T06:49:17;4.50;;;4.05;;
37823;SDS011;23667;43.246;26.576;2022-08-07T06:51:43;5.80;;;3.30;;
37823;SDS011;23667;43.246;26.576;2022-08-07T06:54:10;5.25;;;3.10;;
37823;SDS011;23667;43.246;26.576;2022-08-07T06:56:41;6.13;;;3.42;;
37823;SDS011;23667;43.246;26.576;2022-08-07T06:59:11;6.00;;;3.30;;
37823;SDS011;23667;43.246;26.576;2022-08-07T07:01:40;3.60;;;3.08;;
37823;SDS011;23667;43.246;26.576;2022-08-07T07:04:07;3.58;;;2.80;;
37823;SDS011;23667;43.246;26.576;2022-08-07T07:06:33;6.70;;;3.67;;
37823;SDS011;23667;43.246;26.576;2022-08-07T07:14:33;4.38;;;3.20;;
37823;SDS011;23667;43.246;26.576;2022-08-07T07:17:05;4.80;;;3.40;;
37823;SDS011;23667;43.246;26.576;2022-08-07T07:19:39;5.88;;;4.47;;
37823;SDS011;23667;43.246;26.576;2022-08-07T07:22:11;3.50;;;2.90;;
37823;SDS011;23667;43.246;26.576;2022-08-07T07:24:38;3.20;;;2.90;;
37823;SDS011;23667;43.246;26.576;2022-08-07T07:27:05;10.95;;;4.38;;
37823;SDS011;23667;43.246;26.576;2022-08-07T07:29:38;6.38;;;4.93;;
37823;SDS011;23667;43.246;26.576;2022-08-07T07:32:08;5.43;;;4.28;;
37823;SDS011;23667;43.246;26.576;2022-08-07T07:34:37;9.40;;;5.90;;
37823;SDS011;23667;43.246;26.576;2022-08-07T07:37:08;5.97;;;4.90;;
37823;SDS011;23667;43.246;26.576;2022-08-07T07:39:36;13.88;;;4.82;;
37823;SDS011;23667;43.246;26.576;2022-08-07T07:42:04;9.45;;;4.90;;
37823;SDS011;23667;43.246;26.576;2022-08-07T07:44:31;11.90;;;5.50;;
37823;SDS011;23667;43.246;26.576;2022-08-07T07:47:00;5.13;;;4.20;;
37823;SDS011;23667;43.246;26.576;2022-08-07T07:49:27;5.00;;;4.07;;
37823;SDS011;23667;43.246;26.576;2022-08-07T07:51:54;7.95;;;3.75;;
37823;SDS011;23667;43.246;26.576;2022-08-07T07:54:22;4.63;;;3.95;;
37823;SDS011;23667;43.246;26.576;2022-08-07T07:56:49;4.88;;;3.60;;
37823;SDS011;23667;43.246;26.576;2022-08-07T07:59:16;5.82;;;3.53;;
37823;SDS011;23667;43.246;26.576;2022-08-07T08:01:45;8.50;;;4.50;;
37823;SDS011;23667;43.246;26.576;2022-08-07T08:04:13;5.32;;;3.47;;
37823;SDS011;23667;43.246;26.576;2022-08-07T08:06:42;10.75;;;3.70;;
37823;SDS011;23667;43.246;26.576;2022-08-07T08:09:10;8.15;;;3.65;;
37823;SDS011;23667;43.246;26.576;2022-08-07T08:11:38;4.75;;;3.30;;
37823;SDS011;23667;43.246;26.576;2022-08-07T08:14:04;6.20;;;3.30;;
37823;SDS011;23667;43.246;26.576;2022-08-07T08:16:48;4.63;;;3.05;;
37823;SDS011;23667;43.246;26.576;2022-08-07T08:19:16;7.38;;;3.50;;
37823;SDS011;23667;43.246;26.576;2022-08-07T08:24:43;4.60;;;3.08;;
37823;SDS011;23667;43.246;26.576;2022-08-07T08:27:36;4.80;;;3.08;;
37823;SDS011;23667;43.246;26.576;2022-08-07T08:30:05;7.43;;;3.00;;
37823;SDS011;23667;43.246;26.576;2022-08-07T08:32:35;5.47;;;3.42;;
37823;SDS011;23667;43.246;26.576;2022-08-07T08:35:05;4.95;;;2.95;;
37823;SDS011;23667;43.246;26.576;2022-08-07T08:37:34;6.85;;;3.60;;
37823;SDS011;23667;43.246;26.576;2022-08-07T08:40:02;5.28;;;3.55;;
37823;SDS011;23667;43.246;26.576;2022-08-07T08:42:40;11.35;;;3.72;;
37823;SDS011;23667;43.246;26.576;2022-08-07T08:48:03;5.45;;;3.85;;
37823;SDS011;23667;43.246;26.576;2022-08-07T08:50:36;10.52;;;3.58;;
37823;SDS011;23667;43.246;26.576;2022-08-07T08:55:50;3.58;;;3.00;;
37823;SDS011;23667;43.246;26.576;2022-08-07T09:01:02;6.28;;;3.22;;
37823;SDS011;23667;43.246;26.576;2022-08-07T09:06:36;8.40;;;3.47;;
37823;SDS011;23667;43.246;26.576;2022-08-07T09:09:16;6.45;;;2.80;;
37823;SDS011;23667;43.246;26.576;2022-08-07T09:14:58;3.97;;;2.80;;
37823;SDS011;23667;43.246;26.576;2022-08-07T09:17:35;9.43;;;2.97;;
37823;SDS011;23667;43.246;26.576;2022-08-07T09:22:54;4.15;;;2.53;;
37823;SDS011;23667;43.246;26.576;2022-08-07T09:25:25;6.75;;;2.78;;
37823;SDS011;23667;43.246;26.576;2022-08-07T09:28:04;3.72;;;2.83;;
37823;SDS011;23667;43.246;26.576;2022-08-07T09:33:11;7.50;;;3.10;;
37823;SDS011;23667;43.246;26.576;2022-08-07T09:36:03;4.45;;;2.58;;
37823;SDS011;23667;43.246;26.576;2022-08-07T09:41:22;3.70;;;3.03;;
37823;SDS011;23667;43.246;26.576;2022-08-07T09:44:27;4.70;;;2.22;;
37823;SDS011;23667;43.246;26.576;2022-08-07T09:47:08;3.25;;;2.45;;
37823;SDS011;23667;43.246;26.576;2022-08-07T09:52:50;4.47;;;2.72;;
37823;SDS011;23667;43.246;26.576;2022-08-07T09:58:45;3.30;;;2.22;;
37823;SDS011;23667;43.246;26.576;2022-08-07T10:03:50;12.95;;;3.17;;
37823;SDS011;23667;43.246;26.576;2022-08-07T10:09:51;4.65;;;2.67;;
37823;SDS011;23667;43.246;26.576;2022-08-07T10:20:56;5.13;;;2.08;;
37823;SDS011;23667;43.246;26.576;2022-08-07T10:29:36;9.52;;;2.63;;
37823;SDS011;23667;43.246;26.576;2022-08-07T10:32:13;7.47;;;2.10;;
37823;SDS011;23667;43.246;26.576;2022-08-07T10:35:00;4.63;;;2.35;;
37823;SDS011;23667;43.246;26.576;2022-08-07T10:40:18;4.63;;;1.92;;
37823;SDS011;23667;43.246;26.576;2022-08-07T10:45:37;6.07;;;2.38;;
37823;SDS011;23667;43.246;26.576;2022-08-07T10:51:10;4.80;;;1.85;;
37823;SDS011;23667;43.246;26.576;2022-08-07T10:56:21;4.20;;;2.05;;
37823;SDS011;23667;43.246;26.576;2022-08-07T10:59:14;5.87;;;1.80;;
37823;SDS011;23667;43.246;26.576;2022-08-07T11:07:37;4.10;;;1.95;;
37823;SDS011;23667;43.246;26.576;2022-08-07T11:10:19;4.80;;;1.70;;
37823;SDS011;23667;43.246;26.576;2022-08-07T11:13:05;2.40;;;1.70;;
37823;SDS011;23667;43.246;26.576;2022-08-07T11:15:38;4.70;;;1.35;;
37823;SDS011;23667;43.246;26.576;2022-08-07T11:18:13;4.30;;;1.42;;
37823;SDS011;23667;43.246;26.576;2022-08-07T11:23:37;4.78;;;1.67;;
37823;SDS011;23667;43.246;26.576;2022-08-07T11:26:15;2.80;;;1.40;;
37823;SDS011;23667;43.246;26.576;2022-08-07T11:28:50;2.90;;;1.30;;
37823;SDS011;23667;43.246;26.576;2022-08-07T11:34:29;10.52;;;1.73;;
37823;SDS011;23667;43.246;26.576;2022-08-07T11:48:45;3.03;;;1.33;;
37823;SDS011;23667;43.246;26.576;2022-08-07T11:52:32;15.05;;;1.92;;
37823;SDS011;23667;43.246;26.576;2022-08-07T11:54:32;5.55;;;1.85;;
37823;SDS011;23667;43.246;26.576;2022-08-07T12:02:35;9.30;;;1.88;;
37823;SDS011;23667;43.246;26.576;2022-08-07T12:08:08;8.02;;;2.03;;
37823;SDS011;23667;43.246;26.576;2022-08-07T12:10:39;5.55;;;1.83;;
37823;SDS011;23667;43.246;26.576;2022-08-07T12:15:46;5.95;;;1.80;;
37823;SDS011;23667;43.246;26.576;2022-08-07T12:29:34;6.95;;;2.00;;
37823;SDS011;23667;43.246;26.576;2022-08-07T12:34:54;6.53;;;1.48;;
37823;SDS011;23667;43.246;26.576;2022-08-07T12:37:22;5.85;;;1.58;;
37823;SDS011;23667;43.246;26.576;2022-08-07T12:39:49;7.50;;;2.25;;
37823;SDS011;23667;43.246;26.576;2022-08-07T12:42:20;3.03;;;1.13;;
37823;SDS011;23667;43.246;26.576;2022-08-07T12:44:49;7.13;;;1.63;;
37823;SDS011;23667;43.246;26.576;2022-08-07T12:50:23;2.25;;;1.50;;
37823;SDS011;23667;43.246;26.576;2022-08-07T12:52:59;5.97;;;1.45;;
37823;SDS011;23667;43.246;26.576;2022-08-07T12:55:51;8.63;;;2.08;;
37823;SDS011;23667;43.246;26.576;2022-08-07T12:58:26;12.70;;;2.28;;
37823;SDS011;23667;43.246;26.576;2022-08-07T13:06:30;55.63;;;5.13;;
37823;SDS011;23667;43.246;26.576;2022-08-07T13:14:42;6.55;;;2.33;;
37823;SDS011;23667;43.246;26.576;2022-08-07T13:17:22;15.82;;;2.38;;
37823;SDS011;23667;43.246;26.576;2022-08-07T13:23:23;7.72;;;2.72;;
37823;SDS011;23667;43.246;26.576;2022-08-07T13:26:18;11.05;;;2.67;;
37823;SDS011;23667;43.246;26.576;2022-08-07T13:28:47;12.18;;;3.47;;
37823;SDS011;23667;43.246;26.576;2022-08-07T13:31:44;10.10;;;3.17;;
37823;SDS011;23667;43.246;26.576;2022-08-07T13:36:44;5.18;;;2.47;;
37823;SDS011;23667;43.246;26.576;2022-08-07T13:41:49;9.27;;;2.60;;
37823;SDS011;23667;43.246;26.576;2022-08-07T13:44:22;10.10;;;3.10;;
37823;SDS011;23667;43.246;26.576;2022-08-07T13:46:51;6.55;;;2.70;;
37823;SDS011;23667;43.246;26.576;2022-08-07T13:49:21;8.52;;;2.70;;
37823;SDS011;23667;43.246;26.576;2022-08-07T13:51:48;10.98;;;2.33;;
37823;SDS011;23667;43.246;26.576;2022-08-07T13:54:16;7.75;;;2.25;;
37823;SDS011;23667;43.246;26.576;2022-08-07T13:56:52;4.40;;;2.35;;
37823;SDS011;23667;43.246;26.576;2022-08-07T13:59:20;5.85;;;2.08;;
37823;SDS011;23667;43.246;26.576;2022-08-07T14:01:50;5.47;;;2.10;;
37823;SDS011;23667;43.246;26.576;2022-08-07T14:04:17;4.25;;;1.98;;
37823;SDS011;23667;43.246;26.576;2022-08-07T14:06:48;6.85;;;2.08;;
37823;SDS011;23667;43.246;26.576;2022-08-07T14:09:17;5.05;;;2.20;;
37823;SDS011;23667;43.246;26.576;2022-08-07T14:11:48;6.13;;;2.42;;
37823;SDS011;23667;43.246;26.576;2022-08-07T14:14:16;6.32;;;2.15;;
37823;SDS011;23667;43.246;26.576;2022-08-07T14:16:46;7.05;;;2.03;;
37823;SDS011;23667;43.246;26.576;2022-08-07T14:19:23;7.05;;;2.38;;
37823;SDS011;23667;43.246;26.576;2022-08-07T14:21:59;3.40;;;2.47;;
37823;SDS011;23667;43.246;26.576;2022-08-07T14:27:04;4.57;;;2.30;;
37823;SDS011;23667;43.246;26.576;2022-08-07T14:29:34;5.55;;;2.60;;
37823;SDS011;23667;43.246;26.576;2022-08-07T14:32:04;6.93;;;2.42;;
37823;SDS011;23667;43.246;26.576;2022-08-07T14:34:32;13.00;;;2.80;;
37823;SDS011;23667;43.246;26.576;2022-08-07T14:37:00;11.40;;;2.70;;
37823;SDS011;23667;43.246;26.576;2022-08-07T14:39:26;6.60;;;2.42;;
37823;SDS011;23667;43.246;26.576;2022-08-07T14:41:54;6.45;;;2.42;;
37823;SDS011;23667;43.246;26.576;2022-08-07T14:44:22;4.65;;;2.60;;
37823;SDS011;23667;43.246;26.576;2022-08-07T14:46:50;7.65;;;2.42;;
37823;SDS011;23667;43.246;26.576;2022-08-07T14:49:21;9.57;;;2.67;;
37823;SDS011;23667;43.246;26.576;2022-08-07T14:51:56;5.78;;;2.20;;
37823;SDS011;23667;43.246;26.576;2022-08-07T14:54:23;6.00;;;2.72;;
37823;SDS011;23667;43.246;26.576;2022-08-07T14:56:54;7.72;;;2.58;;
37823;SDS011;23667;43.246;26.576;2022-08-07T14:59:21;7.35;;;2.50;;
37823;SDS011;23667;43.246;26.576;2022-08-07T15:01:49;11.35;;;2.72;;
37823;SDS011;23667;43.246;26.576;2022-08-07T15:04:14;6.22;;;2.90;;
37823;SDS011;23667;43.246;26.576;2022-08-07T15:06:41;5.30;;;2.95;;
37823;SDS011;23667;43.246;26.576;2022-08-07T15:09:13;5.35;;;2.20;;
37823;SDS011;23667;43.246;26.576;2022-08-07T15:12:03;5.97;;;2.13;;
37823;SDS011;23667;43.246;26.576;2022-08-07T15:14:31;8.90;;;2.17;;
37823;SDS011;23667;43.246;26.576;2022-08-07T15:17:01;5.88;;;2.30;;
37823;SDS011;23667;43.246;26.576;2022-08-07T15:19:35;5.57;;;1.80;;
37823;SDS011;23667;43.246;26.576;2022-08-07T15:22:03;7.30;;;2.17;;
37823;SDS011;23667;43.246;26.576;2022-08-07T15:24:38;4.53;;;1.80;;
37823;SDS011;23667;43.246;26.576;2022-08-07T15:27:11;5.22;;;2.00;;
37823;SDS011;23667;43.246;26.576;2022-08-07T15:29:42;10.27;;;1.83;;
37823;SDS011;23667;43.246;26.576;2022-08-07T15:32:10;5.75;;;1.90;;
37823;SDS011;23667;43.246;26.576;2022-08-07T15:34:44;7.53;;;2.05;;
37823;SDS011;23667;43.246;26.576;2022-08-07T15:37:12;5.30;;;2.10;;
37823;SDS011;23667;43.246;26.576;2022-08-07T15:39:40;7.28;;;1.52;;
37823;SDS011;23667;43.246;26.576;2022-08-07T15:42:34;6.47;;;1.63;;
37823;SDS011;23667;43.246;26.576;2022-08-07T15:45:04;2.00;;;1.30;;
37823;SDS011;23667;43.246;26.576;2022-08-07T15:47:35;12.82;;;2.47;;
37823;SDS011;23667;43.246;26.576;2022-08-07T15:50:04;5.90;;;1.65;;
37823;SDS011;23667;43.246;26.576;2022-08-07T15:52:33;3.45;;;1.73;;
37823;SDS011;23667;43.246;26.576;2022-08-07T15:55:03;4.93;;;1.85;;
37823;SDS011;23667;43.246;26.576;2022-08-07T15:57:32;6.68;;;1.55;;
37823;SDS011;23667;43.246;26.576;2022-08-07T15:59:59;5.32;;;1.70;;
37823;SDS011;23667;43.246;26.576;2022-08-07T16:02:29;7.57;;;2.35;;
37823;SDS011;23667;43.246;26.576;2022-08-07T16:05:02;4.18;;;1.80;;
37823;SDS011;23667;43.246;26.576;2022-08-07T16:07:44;7.20;;;2.05;;
37823;SDS011;23667;43.246;26.576;2022-08-07T16:10:20;6.57;;;2.63;;
37823;SDS011;23667;43.246;26.576;2022-08-07T16:20:47;8.98;;;2.08;;
37823;SDS011;23667;43.246;26.576;2022-08-07T16:23:20;8.07;;;2.58;;
37823;SDS011;23667;43.246;26.576;2022-08-07T16:33:49;3.30;;;2.00;;
37823;SDS011;23667;43.246;26.576;2022-08-07T16:41:21;7.32;;;2.08;;
37823;SDS011;23667;43.246;26.576;2022-08-07T16:46:53;8.13;;;2.17;;
37823;SDS011;23667;43.246;26.576;2022-08-07T16:49:40;4.85;;;1.95;;
37823;SDS011;23667;43.246;26.576;2022-08-07T16:58:00;4.65;;;2.42;;
37823;SDS011;23667;43.246;26.576;2022-08-07T17:03:26;7.75;;;2.67;;
37823;SDS011;23667;43.246;26.576;2022-08-07T17:06:21;5.10;;;2.45;;
37823;SDS011;23667;43.246;26.576;2022-08-07T17:08:54;14.30;;;2.78;;
37823;SDS011;23667;43.246;26.576;2022-08-07T17:11:47;5.28;;;2.75;;
37823;SDS011;23667;43.246;26.576;2022-08-07T17:14:36;10.00;;;2.83;;
37823;SDS011;23667;43.246;26.576;2022-08-07T17:17:15;9.25;;;3.28;;
37823;SDS011;23667;43.246;26.576;2022-08-07T17:19:59;5.13;;;2.47;;
37823;SDS011;23667;43.246;26.576;2022-08-07T17:22:33;8.68;;;3.13;;
37823;SDS011;23667;43.246;26.576;2022-08-07T17:27:46;10.73;;;2.95;;
37823;SDS011;23667;43.246;26.576;2022-08-07T17:30:21;7.43;;;2.85;;
37823;SDS011;23667;43.246;26.576;2022-08-07T17:35:51;8.88;;;3.17;;
37823;SDS011;23667;43.246;26.576;2022-08-07T17:38:22;9.15;;;4.13;;
37823;SDS011;23667;43.246;26.576;2022-08-07T17:43:56;10.35;;;4.50;;
37823;SDS011;23667;43.246;26.576;2022-08-07T17:51:54;9.93;;;3.90;;
37823;SDS011;23667;43.246;26.576;2022-08-07T17:54:36;11.52;;;5.15;;
37823;SDS011;23667;43.246;26.576;2022-08-07T17:57:14;14.10;;;4.30;;
37823;SDS011;23667;43.246;26.576;2022-08-07T17:59:48;15.07;;;4.82;;
37823;SDS011;23667;43.246;26.576;2022-08-07T18:07:40;10.32;;;4.60;;
37823;SDS011;23667;43.246;26.576;2022-08-07T18:10:16;15.85;;;5.28;;
37823;SDS011;23667;43.246;26.576;2022-08-07T18:13:24;10.30;;;5.00;;
37823;SDS011;23667;43.246;26.576;2022-08-07T18:18:16;10.70;;;4.60;;
37823;SDS011;23667;43.246;26.576;2022-08-07T18:21:26;10.98;;;4.60;;